sensor_id;sensor_type;location;lat;lon;timestamp;pressure;altitude;pressure_sealevel;temperature;humidity
4123;BME280;2075;51.062;6.920;2023-01-26T00:00:33;7288.00;;;-144.48;100.00
4123;BME280;2075;51.062;6.920;2023-01-26T00:03:19;6274.38;;;-144.48;100.00
4123;BME280;2075;51.062;6.920;2023-01-26T00:06:07;8555.47;;;-144.48;100.00
4123;BME280;2075;51.062;6.920;2023-01-26T00:08:54;8301.94;;;-144.48;100.00
4123;BME280;2075;51.062;6.920;2023-01-26T00:11:39;9062.59;;;-144.48;100.00
4123;BME280;2075;51.062;6.920;2023-01-26T00:14:25;8048.44;;;-144.48;100.00
4123;BME280;2075;51.062;6.920;2023-01-26T00:17:11;5767.69;;;-144.48;100.00
4123;BME280;2075;51.062;6.920;2023-01-26T00:19:57;5007.78;;;-144.48;100.00
4123;BME280;2075;51.062;6.920;2023-01-26T00:22:43;5514.38;;;-144.48;100.00
4123;BME280;2075;51.062;6.920;2023-01-26T00:25:28;7034.56;;;-144.48;100.00
4123;BME280;2075;51.062;6.920;2023-01-26T00:28:14;5514.38;;;-144.48;100.00
4123;BME280;2075;51.062;6.920;2023-01-26T00:31:02;4501.28;;;-144.48;100.00
4123;BME280;2075;51.062;6.920;2023-01-26T00:33:49;6021.03;;;-144.48;100.00
4123;BME280;2075;51.062;6.920;2023-01-26T00:36:34;7794.94;;;-144.48;100.00
4123;BME280;2075;51.062;6.920;2023-01-26T00:39:20;10838.16;;;-144.48;100.00
4123;BME280;2075;51.062;6.920;2023-01-26T00:42:06;13376.31;;;-144.48;100.00
4123;BME280;2075;51.062;6.920;2023-01-26T00:44:52;14138.13;;;-144.48;100.00
4123;BME280;2075;51.062;6.920;2023-01-26T00:47:38;16678.81;;;-144.48;100.00
4123;BME280;2075;51.062;6.920;2023-01-26T00:50:25;15154.19;;;-144.48;100.00
4123;BME280;2075;51.062;6.920;2023-01-26T00:53:11;17441.41;;;-144.48;100.00
4123;BME280;2075;51.062;6.920;2023-01-26T00:55:56;18458.47;;;-144.48;100.00
4123;BME280;2075;51.062;6.920;2023-01-26T00:58:41;13630.22;;;-144.48;100.00
4123;BME280;2075;51.062;6.920;2023-01-26T01:01:28;13122.41;;;-144.48;100.00
4123;BME280;2075;51.062;6.920;2023-01-26T01:04:14;13630.22;;;-144.48;100.00
4123;BME280;2075;51.062;6.920;2023-01-26T01:07:01;14392.13;;;-144.48;100.00
4123;BME280;2075;51.062;6.920;2023-01-26T01:09:46;14138.13;;;-144.48;100.00
4123;BME280;2075;51.062;6.920;2023-01-26T01:12:32;16424.66;;;-144.48;100.00
4123;BME280;2075;51.062;6.920;2023-01-26T01:15:17;19730.22;;;-144.48;100.00
4123;BME280;2075;51.062;6.920;2023-01-26T01:18:03;19475.84;;;-144.48;100.00
4123;BME280;2075;51.062;6.920;2023-01-26T01:20:48;20493.53;;;-144.48;100.00
4123;BME280;2075;51.062;6.920;2023-01-26T01:23:35;22275.22;;;-144.48;100.00
4123;BME280;2075;51.062;6.920;2023-01-26T01:26:20;23803.16;;;-144.48;100.00
4123;BME280;2075;51.062;6.920;2023-01-26T01:29:06;26351.25;;;-144.48;100.00
4123;BME280;2075;51.062;6.920;2023-01-26T01:31:51;27881.03;;;-144.48;100.00
4123;BME280;2075;51.062;6.920;2023-01-26T01:34:37;29411.56;;;-144.48;100.00
4123;BME280;2075;51.062;6.920;2023-01-26T01:37:22;29411.56;;;-144.48;100.00
4123;BME280;2075;51.062;6.920;2023-01-26T01:40:12;28391.13;;;-144.48;100.00
4123;BME280;2075;51.062;6.920;2023-01-26T01:42:59;29156.41;;;-144.48;100.00
4123;BME280;2075;51.062;6.920;2023-01-26T01:45:48;31708.63;;;-144.48;100.00
4123;BME280;2075;51.062;6.920;2023-01-26T01:48:36;32985.44;;;-144.48;100.00
4123;BME280;2075;51.062;6.920;2023-01-26T01:51:29;32985.44;;;-144.48;100.00
4123;BME280;2075;51.062;6.920;2023-01-26T01:54:20;30687.50;;;-144.48;100.00
4123;BME280;2075;51.062;6.920;2023-01-26T01:57:11;28901.31;;;-144.48;100.00
4123;BME280;2075;51.062;6.920;2023-01-26T02:00:06;27626.03;;;-144.48;100.00
4123;BME280;2075;51.062;6.920;2023-01-26T02:03:01;27116.06;;;-144.48;100.00
4123;BME280;2075;51.062;6.920;2023-01-26T02:06:00;28136.09;;;-144.48;100.00
4123;BME280;2075;51.062;6.920;2023-01-26T02:08:49;25331.78;;;-144.48;100.00
4123;BME280;2075;51.062;6.920;2023-01-26T02:11:39;22529.81;;;-144.48;100.00
4123;BME280;2075;51.062;6.920;2023-01-26T02:14:29;21766.06;;;-144.48;100.00
4123;BME280;2075;51.062;6.920;2023-01-26T02:17:16;22529.81;;;-144.48;100.00
4123;BME280;2075;51.062;6.920;2023-01-26T02:20:04;24567.38;;;-144.48;100.00
4123;BME280;2075;51.062;6.920;2023-01-26T02:22:56;22020.63;;;-144.48;100.00
4123;BME280;2075;51.062;6.920;2023-01-26T02:25:54;19221.47;;;-144.48;100.00
4123;BME280;2075;51.062;6.920;2023-01-26T02:28:41;20748.00;;;-144.48;100.00
4123;BME280;2075;51.062;6.920;2023-01-26T02:31:28;19475.84;;;-144.48;100.00
4123;BME280;2075;51.062;6.920;2023-01-26T02:34:14;19221.47;;;-144.48;100.00
4123;BME280;2075;51.062;6.920;2023-01-26T02:37:00;18712.78;;;-144.48;100.00
4123;BME280;2075;51.062;6.920;2023-01-26T02:39:50;16678.81;;;-144.48;100.00
4123;BME280;2075;51.062;6.920;2023-01-26T02:42:39;16933.00;;;-144.48;100.00
4123;BME280;2075;51.062;6.920;2023-01-26T02:45:25;15662.31;;;-144.48;100.00
4123;BME280;2075;51.062;6.920;2023-01-26T02:48:13;12614.66;;;-144.48;100.00
4123;BME280;2075;51.062;6.920;2023-01-26T02:51:20;11599.41;;;-144.48;100.00
4123;BME280;2075;51.062;6.920;2023-01-26T02:54:05;13122.41;;;-144.48;100.00
4123;BME280;2075;51.062;6.920;2023-01-26T02:56:51;10330.75;;;-144.48;100.00
4123;BME280;2075;51.062;6.920;2023-01-26T02:59:36;8809.03;;;-144.48;100.00
4123;BME280;2075;51.062;6.920;2023-01-26T03:02:22;7288.00;;;-144.48;100.00
4123;BME280;2075;51.062;6.920;2023-01-26T03:05:07;7034.56;;;-144.48;100.00
4123;BME280;2075;51.062;6.920;2023-01-26T03:07:53;5514.38;;;-144.48;100.00
4123;BME280;2075;51.062;6.920;2023-01-26T03:10:42;4501.28;;;-144.48;100.00
4123;BME280;2075;51.062;6.920;2023-01-26T03:13:30;4248.06;;;-144.48;100.00
4123;BME280;2075;51.062;6.920;2023-01-26T03:16:17;3488.53;;;-144.48;100.00
4123;BME280;2075;51.062;6.920;2023-01-26T03:19:04;2982.25;;;-144.48;100.00
4123;BME280;2075;51.062;6.920;2023-01-26T03:22:08;3235.38;;;-144.48;100.00
4123;BME280;2075;51.062;6.920;2023-01-26T03:25:11;3235.38;;;-144.48;100.00
4123;BME280;2075;51.062;6.920;2023-01-26T03:28:16;3235.38;;;-144.48;100.00
4123;BME280;2075;51.062;6.920;2023-01-26T03:31:06;5007.78;;;-144.48;100.00
4123;BME280;2075;51.062;6.920;2023-01-26T03:33:53;6527.75;;;-144.48;100.00
4123;BME280;2075;51.062;6.920;2023-01-26T03:36:39;7794.94;;;-144.48;100.00
4123;BME280;2075;51.062;6.920;2023-01-26T03:39:29;8555.47;;;-144.48;100.00
4123;BME280;2075;51.062;6.920;2023-01-26T03:42:32;6781.16;;;-144.48;100.00
4123;BME280;2075;51.062;6.920;2023-01-26T03:45:35;7034.56;;;-144.48;100.00
4123;BME280;2075;51.062;6.920;2023-01-26T03:48:41;8048.44;;;-144.48;100.00
4123;BME280;2075;51.062;6.920;2023-01-26T03:51:45;7541.47;;;-144.48;100.00
4123;BME280;2075;51.062;6.920;2023-01-26T03:54:48;7034.56;;;-144.48;100.00
4123;BME280;2075;51.062;6.920;2023-01-26T03:57:51;6781.16;;;-144.48;100.00
4123;BME280;2075;51.062;6.920;2023-01-26T04:00:36;6021.03;;;-144.48;100.00
4123;BME280;2075;51.062;6.920;2023-01-26T04:03:21;5514.38;;;-144.48;100.00
4123;BME280;2075;51.062;6.920;2023-01-26T04:06:24;7541.47;;;-144.48;100.00
4123;BME280;2075;51.062;6.920;2023-01-26T04:09:30;9569.81;;;-144.48;100.00
4123;BME280;2075;51.062;6.920;2023-01-26T04:12:15;7794.94;;;-144.48;100.00
4123;BME280;2075;51.062;6.920;2023-01-26T04:15:24;7288.00;;;-144.48;100.00
4123;BME280;2075;51.062;6.920;2023-01-26T04:18:28;6527.75;;;-144.48;100.00
4123;BME280;2075;51.062;6.920;2023-01-26T04:21:31;5514.38;;;-144.48;100.00
4123;BME280;2075;51.062;6.920;2023-01-26T04:24:18;4754.53;;;-144.48;100.00
4123;BME280;2075;51.062;6.920;2023-01-26T04:27:07;3741.69;;;-144.48;100.00
4123;BME280;2075;51.062;6.920;2023-01-26T04:29:56;2729.16;;;-144.48;100.00
4123;BME280;2075;51.062;6.920;2023-01-26T04:32:42;3994.88;;;-144.48;100.00
4123;BME280;2075;51.062;6.920;2023-01-26T04:35:29;3235.38;;;-144.48;100.00
4123;BME280;2075;51.062;6.920;2023-01-26T04:38:14;2223.00;;;-144.48;100.00
4123;BME280;2075;51.062;6.920;2023-01-26T04:41:00;1463.94;;;-144.48;100.00
4123;BME280;2075;51.062;6.920;2023-01-26T04:43:51;2476.06;;;-144.48;100.00
4123;BME280;2075;51.062;6.920;2023-01-26T04:46:36;1716.94;;;-144.48;100.00
4123;BME280;2075;51.062;6.920;2023-01-26T04:49:22;2223.00;;;-144.48;100.00
4123;BME280;2075;51.062;6.920;2023-01-26T04:52:07;2729.16;;;-144.48;100.00
4123;BME280;2075;51.062;6.920;2023-01-26T04:54:53;1463.94;;;-144.48;100.00
4123;BME280;2075;51.062;6.920;2023-01-26T04:57:38;2223.00;;;-144.48;100.00
4123;BME280;2075;51.062;6.920;2023-01-26T05:00:25;1463.94;;;-144.48;100.00
4123;BME280;2075;51.062;6.920;2023-01-26T05:03:13;957.97;;;-144.48;100.00
4123;BME280;2075;51.062;6.920;2023-01-26T05:05:59;957.97;;;-144.48;100.00
4123;BME280;2075;51.062;6.920;2023-01-26T05:08:44;-306.56;;;-144.48;100.00
4123;BME280;2075;51.062;6.920;2023-01-26T05:11:30;-1065.06;;;-144.48;100.00
4123;BME280;2075;51.062;6.920;2023-01-26T05:14:34;-1065.06;;;-144.48;100.00
4123;BME280;2075;51.062;6.920;2023-01-26T05:17:35;-559.44;;;-144.48;100.00
4123;BME280;2075;51.062;6.920;2023-01-26T05:20:40;199.19;;;-144.48;100.00
4123;BME280;2075;51.062;6.920;2023-01-26T05:23:34;199.19;;;-144.48;100.00
4123;BME280;2075;51.062;6.920;2023-01-26T05:26:20;-1065.06;;;-144.48;100.00
4123;BME280;2075;51.062;6.920;2023-01-26T05:29:21;-1065.06;;;-144.48;100.00
4123;BME280;2075;51.062;6.920;2023-01-26T05:32:07;-559.44;;;-144.48;100.00
4123;BME280;2075;51.062;6.920;2023-01-26T05:34:53;-306.56;;;-144.48;100.00
4123;BME280;2075;51.062;6.920;2023-01-26T05:37:39;-559.44;;;-144.48;100.00
4123;BME280;2075;51.062;6.920;2023-01-26T05:40:26;-559.44;;;-144.48;100.00
4123;BME280;2075;51.062;6.920;2023-01-26T05:43:13;-306.56;;;-144.48;100.00
4123;BME280;2075;51.062;6.920;2023-01-26T05:46:02;-1317.84;;;-144.48;100.00
4123;BME280;2075;51.062;6.920;2023-01-26T05:48:47;-1317.84;;;-144.48;100.00
4123;BME280;2075;51.062;6.920;2023-01-26T05:51:34;-812.25;;;-144.48;100.00
4123;BME280;2075;51.062;6.920;2023-01-26T05:54:19;199.19;;;-144.48;100.00
4123;BME280;2075;51.062;6.920;2023-01-26T05:57:07;199.19;;;-144.48;100.00
4123;BME280;2075;51.062;6.920;2023-01-26T05:59:55;1210.94;;;-144.48;100.00
4123;BME280;2075;51.062;6.920;2023-01-26T06:02:41;1716.94;;;-144.48;100.00
4123;BME280;2075;51.062;6.920;2023-01-26T06:05:30;705.03;;;-144.48;100.00
4123;BME280;2075;51.062;6.920;2023-01-26T06:08:18;705.03;;;-144.48;100.00
4123;BME280;2075;51.062;6.920;2023-01-26T06:11:11;705.03;;;-144.48;100.00
4123;BME280;2075;51.062;6.920;2023-01-26T06:14:17;957.97;;;-144.48;100.00
4123;BME280;2075;51.062;6.920;2023-01-26T06:17:02;1210.94;;;-144.48;100.00
4123;BME280;2075;51.062;6.920;2023-01-26T06:19:48;1463.94;;;-144.48;100.00
4123;BME280;2075;51.062;6.920;2023-01-26T06:22:34;452.09;;;-144.48;100.00
4123;BME280;2075;51.062;6.920;2023-01-26T06:25:21;452.09;;;-144.48;100.00
4123;BME280;2075;51.062;6.920;2023-01-26T06:28:07;452.09;;;-144.48;100.00
4123;BME280;2075;51.062;6.920;2023-01-26T06:30:58;-306.56;;;-144.48;100.00
4123;BME280;2075;51.062;6.920;2023-01-26T06:33:44;-812.25;;;-144.48;100.00
4123;BME280;2075;51.062;6.920;2023-01-26T06:36:30;-1065.06;;;-144.48;100.00
4123;BME280;2075;51.062;6.920;2023-01-26T06:39:17;-1570.63;;;-144.48;100.00
4123;BME280;2075;51.062;6.920;2023-01-26T06:42:04;-3086.84;;;-144.48;100.00
4123;BME280;2075;51.062;6.920;2023-01-26T06:44:51;-3844.69;;;-144.48;100.00
4123;BME280;2075;51.062;6.920;2023-01-26T06:47:36;-4602.38;;;-144.48;100.00
4123;BME280;2075;51.062;6.920;2023-01-26T06:50:26;-4602.38;;;-144.48;100.00
4123;BME280;2075;51.062;6.920;2023-01-26T06:53:25;-4854.91;;;-144.48;100.00
4123;BME280;2075;51.062;6.920;2023-01-26T06:56:29;-5864.78;;;-144.48;100.00
4123;BME280;2075;51.062;6.920;2023-01-26T06:59:35;-6117.19;;;-144.48;100.00
4123;BME280;2075;51.062;6.920;2023-01-26T07:02:32;-6117.19;;;-144.48;100.00
4123;BME280;2075;51.062;6.920;2023-01-26T07:05:18;-5612.34;;;-144.48;100.00
4123;BME280;2075;51.062;6.920;2023-01-26T07:08:03;-5359.88;;;-144.48;100.00
4123;BME280;2075;51.062;6.920;2023-01-26T07:10:51;-5107.41;;;-144.48;100.00
4123;BME280;2075;51.062;6.920;2023-01-26T07:13:37;-6117.19;;;-144.48;100.00
4123;BME280;2075;51.062;6.920;2023-01-26T07:16:24;-6621.97;;;-144.48;100.00
4123;BME280;2075;51.062;6.920;2023-01-26T07:19:10;-7126.69;;;-144.48;100.00
4123;BME280;2075;51.062;6.920;2023-01-26T07:21:55;-7379.00;;;-144.48;100.00
4123;BME280;2075;51.062;6.920;2023-01-26T07:24:40;-7126.69;;;-144.48;100.00
4123;BME280;2075;51.062;6.920;2023-01-26T07:27:26;-7126.69;;;-144.48;100.00
4123;BME280;2075;51.062;6.920;2023-01-26T07:30:12;-6621.97;;;-144.48;100.00
4123;BME280;2075;51.062;6.920;2023-01-26T07:32:59;-5864.78;;;-144.48;100.00
4123;BME280;2075;51.062;6.920;2023-01-26T07:35:44;-4602.38;;;-144.48;100.00
4123;BME280;2075;51.062;6.920;2023-01-26T07:38:31;-3339.50;;;-144.48;100.00
4123;BME280;2075;51.062;6.920;2023-01-26T07:41:16;-1823.38;;;-144.48;100.00
4123;BME280;2075;51.062;6.920;2023-01-26T07:44:11;-1570.63;;;-144.48;100.00
4123;BME280;2075;51.062;6.920;2023-01-26T07:46:56;-812.25;;;-144.48;100.00
4123;BME280;2075;51.062;6.920;2023-01-26T07:49:43;-1065.06;;;-144.48;100.00
4123;BME280;2075;51.062;6.920;2023-01-26T07:52:30;-559.44;;;-144.48;100.00
4123;BME280;2075;51.062;6.920;2023-01-26T07:55:15;-1065.06;;;-144.48;100.00
4123;BME280;2075;51.062;6.920;2023-01-26T07:58:03;452.09;;;-144.48;100.00
4123;BME280;2075;51.062;6.920;2023-01-26T08:00:48;199.19;;;-144.48;100.00
4123;BME280;2075;51.062;6.920;2023-01-26T08:03:34;705.03;;;-144.48;100.00
4123;BME280;2075;51.062;6.920;2023-01-26T08:06:21;3235.38;;;-144.48;100.00
4123;BME280;2075;51.062;6.920;2023-01-26T08:09:08;5007.78;;;-144.48;100.00
4123;BME280;2075;51.062;6.920;2023-01-26T08:11:55;5767.69;;;-144.48;100.00
4123;BME280;2075;51.062;6.920;2023-01-26T08:14:40;5767.69;;;-144.48;100.00
4123;BME280;2075;51.062;6.920;2023-01-26T08:17:27;5007.78;;;-144.48;100.00
4123;BME280;2075;51.062;6.920;2023-01-26T08:20:13;6781.16;;;-144.48;100.00
4123;BME280;2075;51.062;6.920;2023-01-26T08:22:59;6781.16;;;-144.48;100.00
4123;BME280;2075;51.062;6.920;2023-01-26T08:25:45;5261.06;;;-144.48;100.00
4123;BME280;2075;51.062;6.920;2023-01-26T08:28:32;3994.88;;;-144.48;100.00
4123;BME280;2075;51.062;6.920;2023-01-26T08:31:18;5261.06;;;-144.48;100.00
4123;BME280;2075;51.062;6.920;2023-01-26T08:34:04;7794.94;;;-144.48;100.00
4123;BME280;2075;51.062;6.920;2023-01-26T08:36:49;8301.94;;;-144.48;100.00
4123;BME280;2075;51.062;6.920;2023-01-26T08:39:36;11345.63;;;-144.48;100.00
4123;BME280;2075;51.062;6.920;2023-01-26T08:42:21;11345.63;;;-144.48;100.00
4123;BME280;2075;51.062;6.920;2023-01-26T08:45:09;11091.88;;;-144.48;100.00
4123;BME280;2075;51.062;6.920;2023-01-26T08:47:54;12614.66;;;-144.48;100.00
4123;BME280;2075;51.062;6.920;2023-01-26T08:50:39;15408.25;;;-144.48;100.00
4123;BME280;2075;51.062;6.920;2023-01-26T08:53:25;14646.13;;;-144.48;100.00
4123;BME280;2075;51.062;6.920;2023-01-26T08:56:12;13376.31;;;-144.48;100.00
4123;BME280;2075;51.062;6.920;2023-01-26T08:58:57;15916.41;;;-144.48;100.00
4123;BME280;2075;51.062;6.920;2023-01-26T09:01:43;15662.31;;;-144.48;100.00
4123;BME280;2075;51.062;6.920;2023-01-26T09:04:28;18204.19;;;-144.48;100.00
4123;BME280;2075;51.062;6.920;2023-01-26T09:07:14;21766.06;;;-144.48;100.00
4123;BME280;2075;51.062;6.920;2023-01-26T09:09:59;23548.44;;;-144.48;100.00
4123;BME280;2075;51.062;6.920;2023-01-26T09:12:46;24567.38;;;-144.48;100.00
4123;BME280;2075;51.062;6.920;2023-01-26T09:15:32;25331.78;;;-144.48;100.00
4123;BME280;2075;51.062;6.920;2023-01-26T09:18:18;27881.03;;;-144.48;100.00
4123;BME280;2075;51.062;6.920;2023-01-26T09:21:05;33751.78;;;-144.48;100.00
4123;BME280;2075;51.062;6.920;2023-01-26T09:23:51;35284.97;;;-144.48;100.00
4123;BME280;2075;51.062;6.920;2023-01-26T09:26:36;37330.31;;;-144.48;100.00
4123;BME280;2075;51.062;6.920;2023-01-26T09:29:23;39888.75;;;-144.48;100.00
4123;BME280;2075;51.062;6.920;2023-01-26T09:32:09;37330.31;;;-144.48;100.00
4123;BME280;2075;51.062;6.920;2023-01-26T09:34:54;35540.56;;;-144.48;100.00
4123;BME280;2075;51.062;6.920;2023-01-26T09:37:40;33496.31;;;-144.48;100.00
4123;BME280;2075;51.062;6.920;2023-01-26T09:40:35;30432.28;;;-144.48;100.00
4123;BME280;2075;51.062;6.920;2023-01-26T09:43:29;27371.03;;;-144.48;100.00
4123;BME280;2075;51.062;6.920;2023-01-26T09:46:22;26351.25;;;-144.48;100.00
4123;BME280;2075;51.062;6.920;2023-01-26T09:49:11;24057.88;;;-144.48;100.00
4123;BME280;2075;51.062;6.920;2023-01-26T09:52:02;19984.66;;;-144.48;100.00
4123;BME280;2075;51.062;6.920;2023-01-26T09:54:51;18458.47;;;-144.48;100.00
4123;BME280;2075;51.062;6.920;2023-01-26T09:57:40;18458.47;;;-144.48;100.00
4123;BME280;2075;51.062;6.920;2023-01-26T10:00:32;17187.19;;;-144.48;100.00
4123;BME280;2075;51.062;6.920;2023-01-26T10:03:29;17187.19;;;-144.48;100.00
4123;BME280;2075;51.062;6.920;2023-01-26T10:06:20;16170.53;;;-144.48;100.00
4123;BME280;2075;51.062;6.920;2023-01-26T10:09:40;12868.53;;;-144.48;100.00
4123;BME280;2075;51.062;6.920;2023-01-26T10:12:30;11853.19;;;-144.48;100.00
4123;BME280;2075;51.062;6.920;2023-01-26T10:15:25;13884.19;;;-144.48;100.00
4123;BME280;2075;51.062;6.920;2023-01-26T10:18:16;11599.41;;;-144.48;100.00
4123;BME280;2075;51.062;6.920;2023-01-26T10:21:08;13630.22;;;-144.48;100.00
4123;BME280;2075;51.062;6.920;2023-01-26T10:23:57;14392.13;;;-144.48;100.00
4123;BME280;2075;51.062;6.920;2023-01-26T10:26:46;17949.91;;;-144.48;100.00
4123;BME280;2075;51.062;6.920;2023-01-26T10:29:34;18204.19;;;-144.48;100.00
4123;BME280;2075;51.062;6.920;2023-01-26T10:32:22;21511.53;;;-144.48;100.00
4123;BME280;2075;51.062;6.920;2023-01-26T10:35:14;24567.38;;;-144.48;100.00
4123;BME280;2075;51.062;6.920;2023-01-26T10:38:01;21257.00;;;-144.48;100.00
4123;BME280;2075;51.062;6.920;2023-01-26T10:40:47;18204.19;;;-144.48;100.00
4123;BME280;2075;51.062;6.920;2023-01-26T10:43:35;19984.66;;;-144.48;100.00
4123;BME280;2075;51.062;6.920;2023-01-26T10:46:30;19475.84;;;-144.48;100.00
4123;BME280;2075;51.062;6.920;2023-01-26T10:49:16;16678.81;;;-144.48;100.00
4123;BME280;2075;51.062;6.920;2023-01-26T10:52:06;16678.81;;;-144.48;100.00
4123;BME280;2075;51.062;6.920;2023-01-26T10:55:08;15408.25;;;-144.48;100.00
4123;BME280;2075;51.062;6.920;2023-01-26T10:57:54;15916.41;;;-144.48;100.00
4123;BME280;2075;51.062;6.920;2023-01-26T11:00:40;16170.53;;;-144.48;100.00
4123;BME280;2075;51.062;6.920;2023-01-26T11:03:26;12868.53;;;-144.48;100.00
4123;BME280;2075;51.062;6.920;2023-01-26T11:06:14;15154.19;;;-144.48;100.00
4123;BME280;2075;51.062;6.920;2023-01-26T11:09:16;8555.47;;;-144.48;100.00
4123;BME280;2075;51.062;6.920;2023-01-26T11:12:03;9569.81;;;-144.48;100.00
4123;BME280;2075;51.062;6.920;2023-01-26T11:14:59;14392.13;;;-144.48;100.00
4123;BME280;2075;51.062;6.920;2023-01-26T11:17:58;18204.19;;;-144.48;100.00
4123;BME280;2075;51.062;6.920;2023-01-26T11:20:48;17187.19;;;-144.48;100.00
4123;BME280;2075;51.062;6.920;2023-01-26T11:27:08;19730.22;;;-144.48;100.00
4123;BME280;2075;51.062;6.920;2023-01-26T11:30:35;19221.47;;;-144.48;100.00
4123;BME280;2075;51.062;6.920;2023-01-26T11:33:31;11091.88;;;-144.48;100.00
4123;BME280;2075;51.062;6.920;2023-01-26T11:36:29;12107.00;;;-144.48;100.00
4123;BME280;2075;51.062;6.920;2023-01-26T11:39:26;7794.94;;;-144.48;100.00
4123;BME280;2075;51.062;6.920;2023-01-26T11:42:26;6021.03;;;-144.48;100.00
4123;BME280;2075;51.062;6.920;2023-01-26T11:45:25;5767.69;;;-144.48;100.00
4123;BME280;2075;51.062;6.920;2023-01-26T11:48:20;8301.94;;;-144.48;100.00
4123;BME280;2075;51.062;6.920;2023-01-26T11:51:17;6527.75;;;-144.48;100.00
4123;BME280;2075;51.062;6.920;2023-01-26T11:54:23;5007.78;;;-144.48;100.00
4123;BME280;2075;51.062;6.920;2023-01-26T11:57:21;6781.16;;;-144.48;100.00
4123;BME280;2075;51.062;6.920;2023-01-26T12:00:14;6781.16;;;-144.48;100.00
4123;BME280;2075;51.062;6.920;2023-01-26T12:03:03;6274.38;;;-144.48;100.00
4123;BME280;2075;51.062;6.920;2023-01-26T12:05:52;6274.38;;;-144.48;100.00
4123;BME280;2075;51.062;6.920;2023-01-26T12:08:41;6527.75;;;-144.48;100.00
4123;BME280;2075;51.062;6.920;2023-01-26T12:11:32;6021.03;;;-144.48;100.00
4123;BME280;2075;51.062;6.920;2023-01-26T12:14:23;5767.69;;;-144.48;100.00
4123;BME280;2075;51.062;6.920;2023-01-26T12:17:32;4501.28;;;-144.48;100.00
4123;BME280;2075;51.062;6.920;2023-01-26T12:20:28;3994.88;;;-144.48;100.00
4123;BME280;2075;51.062;6.920;2023-01-26T12:23:26;2982.25;;;-144.48;100.00
4123;BME280;2075;51.062;6.920;2023-01-26T12:26:15;3488.53;;;-144.48;100.00
4123;BME280;2075;51.062;6.920;2023-01-26T12:29:05;3994.88;;;-144.48;100.00
4123;BME280;2075;51.062;6.920;2023-01-26T12:31:57;4501.28;;;-144.48;100.00
4123;BME280;2075;51.062;6.920;2023-01-26T12:34:44;5767.69;;;-144.48;100.00
4123;BME280;2075;51.062;6.920;2023-01-26T12:37:46;7794.94;;;-144.48;100.00
4123;BME280;2075;51.062;6.920;2023-01-26T12:40:41;10330.75;;;-144.48;100.00
4123;BME280;2075;51.062;6.920;2023-01-26T12:43:42;8809.03;;;-144.48;100.00
4123;BME280;2075;51.062;6.920;2023-01-26T12:46:35;7794.94;;;-144.48;100.00
4123;BME280;2075;51.062;6.920;2023-01-26T12:49:29;9823.44;;;-144.48;100.00
4123;BME280;2075;51.062;6.920;2023-01-26T12:52:20;12107.00;;;-144.48;100.00
4123;BME280;2075;51.062;6.920;2023-01-26T12:55:14;11599.41;;;-144.48;100.00
4123;BME280;2075;51.062;6.920;2023-01-26T12:58:02;10077.09;;;-144.48;100.00
4123;BME280;2075;51.062;6.920;2023-01-26T13:00:51;8048.44;;;-144.48;100.00
4123;BME280;2075;51.062;6.920;2023-01-26T13:03:39;9569.81;;;-144.48;100.00
4123;BME280;2075;51.062;6.920;2023-01-26T13:06:29;11345.63;;;-144.48;100.00
4123;BME280;2075;51.062;6.920;2023-01-26T13:09:20;7794.94;;;-144.48;100.00
4123;BME280;2075;51.062;6.920;2023-01-26T13:12:46;3235.38;;;-144.48;100.00
4123;BME280;2075;51.062;6.920;2023-01-26T13:15:32;199.19;;;-144.48;100.00
4123;BME280;2075;51.062;6.920;2023-01-26T13:18:18;-53.69;;;-144.48;100.00
4123;BME280;2075;51.062;6.920;2023-01-26T13:21:03;-53.69;;;-144.48;100.00
4123;BME280;2075;51.062;6.920;2023-01-26T13:23:49;-53.69;;;-144.48;100.00
4123;BME280;2075;51.062;6.920;2023-01-26T13:26:46;-1065.06;;;-144.48;100.00
4123;BME280;2075;51.062;6.920;2023-01-26T13:29:36;-3844.69;;;-144.48;100.00
4123;BME280;2075;51.062;6.920;2023-01-26T13:33:02;-5864.78;;;-144.48;100.00
4123;BME280;2075;51.062;6.920;2023-01-26T13:35:51;-6621.97;;;-144.48;100.00
4123;BME280;2075;51.062;6.920;2023-01-26T13:38:41;-6874.34;;;-144.48;100.00
4123;BME280;2075;51.062;6.920;2023-01-26T13:41:27;-7883.59;;;-144.48;100.00
4123;BME280;2075;51.062;6.920;2023-01-26T13:44:15;-8388.09;;;-144.48;100.00
4123;BME280;2075;51.062;6.920;2023-01-26T13:47:06;-9649.03;;;-144.48;100.00
4123;BME280;2075;51.062;6.920;2023-01-26T13:49:53;-10153.28;;;-144.48;100.00
4123;BME280;2075;51.062;6.920;2023-01-26T13:52:41;-10909.50;;;-144.48;100.00
4123;BME280;2075;51.062;6.920;2023-01-26T13:55:29;-11161.53;;;-144.48;100.00
4123;BME280;2075;51.062;6.920;2023-01-26T13:58:17;-10909.50;;;-144.48;100.00
4123;BME280;2075;51.062;6.920;2023-01-26T14:01:05;-10909.50;;;-144.48;100.00
4123;BME280;2075;51.062;6.920;2023-01-26T14:04:03;-11161.53;;;-144.48;100.00
4123;BME280;2075;51.062;6.920;2023-01-26T14:06:53;-11413.53;;;-144.48;100.00
4123;BME280;2075;51.062;6.920;2023-01-26T14:09:44;-11665.53;;;-144.48;100.00
4123;BME280;2075;51.062;6.920;2023-01-26T14:12:33;-11665.53;;;-144.48;100.00
4123;BME280;2075;51.062;6.920;2023-01-26T14:15:22;-11665.53;;;-144.48;100.00
4123;BME280;2075;51.062;6.920;2023-01-26T14:18:19;-11667.00;;;-144.48;100.00
4123;BME280;2075;51.062;6.920;2023-01-26T14:21:16;-11667.00;;;-144.48;100.00
4123;BME280;2075;51.062;6.920;2023-01-26T14:24:07;-11667.00;;;-144.48;100.00
4123;BME280;2075;51.062;6.920;2023-01-26T14:26:53;-11667.00;;;-144.48;100.00
4123;BME280;2075;51.062;6.920;2023-01-26T14:29:38;-11667.00;;;-144.48;100.00
4123;BME280;2075;51.062;6.920;2023-01-26T14:32:25;-11667.00;;;-144.48;100.00
4123;BME280;2075;51.062;6.920;2023-01-26T14:35:19;-11667.00;;;-144.48;100.00
4123;BME280;2075;51.062;6.920;2023-01-26T14:38:17;-11665.53;;;-144.48;100.00
4123;BME280;2075;51.062;6.920;2023-01-26T14:41:08;-11665.53;;;-144.48;100.00
4123;BME280;2075;51.062;6.920;2023-01-26T14:43:57;-11665.53;;;-144.48;100.00
4123;BME280;2075;51.062;6.920;2023-01-26T14:46:57;-11665.53;;;-144.48;100.00
4123;BME280;2075;51.062;6.920;2023-01-26T14:49:46;-11667.00;;;-144.48;100.00
4123;BME280;2075;51.062;6.920;2023-01-26T14:52:38;-11667.00;;;-144.48;100.00
4123;BME280;2075;51.062;6.920;2023-01-26T14:55:30;-11667.00;;;-144.48;100.00
4123;BME280;2075;51.062;6.920;2023-01-26T14:58:20;-11667.00;;;-144.48;100.00